Time;durP1;ratioP1;P1;durP2;ratioP2;P2;SDS_P1;SDS_P2;PMS_P1;PMS_P2;Temp;Humidity;BMP_temperature;BMP_pressure;BME280_temperature;BME280_humidity;BME280_pressure;Samples;Min_cycle;Max_cycle;Signal;HPM_P1;HPM_P2
2023/09/24 00:02:10;;;;;;;4.72;2.25;;;;;;;;;;7388331;19;20095;-68
2023/09/24 00:04:36;;;;;;;4.30;2.25;;;;;;;;;;7367646;19;20030;-67
2023/09/24 00:07:02;;;;;;;5.80;2.20;;;;;;;;;;7367559;19;20007;-68
2023/09/24 00:09:27;;;;;;;5.07;2.08;;;;;;;;;;7367318;19;20077;-69
2023/09/24 00:11:52;;;;;;;5.20;2.00;;;;;;;;;;7366338;19;20036;-69
2023/09/24 00:14:18;;;;;;;5.55;2.33;;;;;;;;;;7366961;19;20006;-69
2023/09/24 00:16:43;;;;;;;4.93;2.28;;;;;;;;;;7388705;19;19998;-68
2023/09/24 00:19:09;;;;;;;3.88;2.22;;;;;;;;;;7367642;19;20006;-69
2023/09/24 00:21:34;;;;;;;4.70;2.25;;;;;;;;;;7367624;19;20010;-69
2023/09/24 00:23:59;;;;;;;5.22;2.58;;;;;;;;;;7370444;19;20006;-68
2023/09/24 00:26:25;;;;;;;4.13;2.20;;;;;;;;;;7370797;19;20030;-68
2023/09/24 00:28:50;;;;;;;5.70;2.45;;;;;;;;;;7391138;19;20098;-68
2023/09/24 00:31:16;;;;;;;7.40;2.20;;;;;;;;;;7366353;19;20010;-68
2023/09/24 00:33:41;;;;;;;5.40;2.35;;;;;;;;;;7366402;19;20003;-68
2023/09/24 00:36:07;;;;;;;4.80;2.53;;;;;;;;;;7369753;19;20017;-68
2023/09/24 00:38:32;;;;;;;3.55;1.95;;;;;;;;;;7374500;19;20035;-69
2023/09/24 00:40:57;;;;;;;5.25;2.33;;;;;;;;;;7395734;19;20005;-69
2023/09/24 00:43:31;;;;;;;5.05;2.13;;;;;;;;;;7370668;19;20014;-68
2023/09/24 00:45:58;;;;;;;3.75;2.20;;;;;;;;;;7375168;19;20021;-69
2023/09/24 00:48:30;;;;;;;3.42;1.85;;;;;;;;;;7377387;19;20595;-68
2023/09/24 00:50:57;;;;;;;5.22;2.28;;;;;;;;;;7375392;19;20017;-68
2023/09/24 00:53:25;;;;;;;7.13;2.60;;;;;;;;;;7370996;19;20070;-71
2023/09/24 00:55:51;;;;;;;5.60;2.33;;;;;;;;;;7395275;19;19998;-68
2023/09/24 00:58:17;;;;;;;4.28;2.33;;;;;;;;;;7373382;19;20010;-69
2023/09/24 01:00:45;;;;;;;4.28;2.10;;;;;;;;;;7373889;19;20007;-69
2023/09/24 01:03:11;;;;;;;7.43;2.50;;;;;;;;;;7372560;19;20014;-68
2023/09/24 01:05:37;;;;;;;3.60;2.00;;;;;;;;;;7373988;19;20011;-69
2023/09/24 01:08:03;;;;;;;4.95;2.38;;;;;;;;;;7393312;19;20496;-68
2023/09/24 01:10:28;;;;;;;3.78;1.83;;;;;;;;;;7372996;19;20019;-69
2023/09/24 01:13:01;;;;;;;5.20;2.50;;;;;;;;;;7371324;19;20472;-69
2023/09/24 01:15:31;;;;;;;5.00;2.10;;;;;;;;;;7372929;19;19999;-69
2023/09/24 01:17:57;;;;;;;3.60;2.22;;;;;;;;;;7372923;19;20137;-68
2023/09/24 01:20:24;;;;;;;4.47;2.13;;;;;;;;;;7372571;19;20025;-68
2023/09/24 01:22:50;;;;;;;3.53;2.20;;;;;;;;;;7389961;19;20013;-68
2023/09/24 01:25:18;;;;;;;4.10;2.45;;;;;;;;;;7372001;19;20006;-69
2023/09/24 01:27:44;;;;;;;5.93;2.55;;;;;;;;;;7370222;19;20016;-68
2023/09/24 01:30:10;;;;;;;6.07;2.47;;;;;;;;;;7372548;19;20010;-69
2023/09/24 01:32:36;;;;;;;9.75;2.55;;;;;;;;;;7370253;19;20421;-69
2023/09/24 01:35:06;;;;;;;4.05;2.03;;;;;;;;;;7392491;19;20027;-68
2023/09/24 01:37:34;;;;;;;6.28;2.30;;;;;;;;;;7372078;19;20490;-68
2023/09/24 01:40:10;;;;;;;5.13;2.10;;;;;;;;;;7375410;19;20011;-68
2023/09/24 01:42:36;;;;;;;6.50;2.65;;;;;;;;;;7374144;19;20754;-69
2023/09/24 01:45:01;;;;;;;6.30;2.42;;;;;;;;;;7372732;19;20067;-68
2023/09/24 01:47:28;;;;;;;4.13;2.50;;;;;;;;;;7368937;19;19998;-68
2023/09/24 01:49:56;;;;;;;7.28;2.38;;;;;;;;;;7393622;19;20448;-69
2023/09/24 01:52:22;;;;;;;5.13;2.45;;;;;;;;;;7369332;19;20490;-69
2023/09/24 01:54:47;;;;;;;6.60;2.75;;;;;;;;;;7372176;19;20010;-69
2023/09/24 01:57:12;;;;;;;7.10;2.47;;;;;;;;;;7370313;19;20361;-68
2023/09/24 01:59:38;;;;;;;4.60;2.50;;;;;;;;;;7371150;19;20006;-69
2023/09/24 02:02:03;;;;;;;6.68;2.75;;;;;;;;;;7391612;19;19999;-69
2023/09/24 02:04:28;;;;;;;5.05;2.40;;;;;;;;;;7370316;19;20014;-70
2023/09/24 02:06:54;;;;;;;6.70;2.50;;;;;;;;;;7371543;19;20525;-69
2023/09/24 02:09:19;;;;;;;4.47;2.45;;;;;;;;;;7370134;19;20074;-69
2023/09/24 02:11:45;;;;;;;3.65;2.22;;;;;;;;;;7371145;19;20011;-68
2023/09/24 02:14:11;;;;;;;4.35;2.20;;;;;;;;;;7392217;19;20027;-68
2023/09/24 02:16:38;;;;;;;4.57;2.28;;;;;;;;;;7370548;19;20031;-69
2023/09/24 02:19:04;;;;;;;7.22;2.80;;;;;;;;;;7369733;19;20030;-68
2023/09/24 02:21:31;;;;;;;6.13;2.60;;;;;;;;;;7371251;19;20112;-68
2023/09/24 02:23:57;;;;;;;8.70;2.60;;;;;;;;;;7368793;19;20044;-69
2023/09/24 02:26:22;;;;;;;4.18;2.38;;;;;;;;;;7371724;19;20010;-69
2023/09/24 02:28:47;;;;;;;4.32;2.47;;;;;;;;;;7390543;19;20013;-69
2023/09/24 02:31:12;;;;;;;5.80;2.83;;;;;;;;;;7370382;19;20512;-68
2023/09/24 02:33:38;;;;;;;4.35;2.38;;;;;;;;;;7369081;19;20389;-68
2023/09/24 02:36:08;;;;;;;6.35;2.85;;;;;;;;;;7371149;19;20017;-68
2023/09/24 02:38:33;;;;;;;6.38;2.78;;;;;;;;;;7370654;19;20465;-69
2023/09/24 02:40:59;;;;;;;7.70;3.08;;;;;;;;;;7395000;19;20074;-69
2023/09/24 02:43:24;;;;;;;4.82;2.47;;;;;;;;;;7373717;19;20015;-69
2023/09/24 02:45:49;;;;;;;6.25;2.63;;;;;;;;;;7376328;19;20010;-68
2023/09/24 02:48:18;;;;;;;5.22;2.90;;;;;;;;;;7375704;19;20393;-68
2023/09/24 02:50:43;;;;;;;7.60;3.00;;;;;;;;;;7374257;19;20083;-69
2023/09/24 02:53:09;;;;;;;5.95;2.67;;;;;;;;;;7390287;19;20454;-68
2023/09/24 02:55:36;;;;;;;7.88;3.03;;;;;;;;;;7369428;19;20491;-68
2023/09/24 02:58:04;;;;;;;5.65;2.83;;;;;;;;;;7368913;19;20010;-69
2023/09/24 03:00:35;;;;;;;5.65;2.67;;;;;;;;;;7369329;19;20054;-68
2023/09/24 03:03:03;;;;;;;5.25;2.75;;;;;;;;;;7368256;19;20009;-68
2023/09/24 03:05:29;;;;;;;6.32;2.95;;;;;;;;;;7368201;19;20013;-68
2023/09/24 03:07:55;;;;;;;7.00;2.65;;;;;;;;;;7390132;19;20014;-69
2023/09/24 03:10:22;;;;;;;5.10;2.80;;;;;;;;;;7368474;19;19998;-68
2023/09/24 03:12:48;;;;;;;7.30;2.30;;;;;;;;;;7367482;19;20002;-69
2023/09/24 03:15:14;;;;;;;6.22;3.00;;;;;;;;;;7368881;19;20168;-68
2023/09/24 03:17:41;;;;;;;7.07;3.60;;;;;;;;;;7368735;19;20460;-68
2023/09/24 03:20:19;;;;;;;7.03;3.45;;;;;;;;;;7389066;19;20006;-68
2023/09/24 03:22:48;;;;;;;6.60;3.10;;;;;;;;;;7366774;19;20006;-68
2023/09/24 03:25:27;;;;;;;6.43;3.08;;;;;;;;;;7368323;19;20002;-68
2023/09/24 03:27:55;;;;;;;5.78;3.05;;;;;;;;;;7367497;19;20002;-69
2023/09/24 03:30:21;;;;;;;5.72;2.95;;;;;;;;;;7369178;19;20030;-68
2023/09/24 03:32:52;;;;;;;5.25;2.95;;;;;;;;;;7367816;19;20334;-69
2023/09/24 03:35:21;;;;;;;5.18;2.95;;;;;;;;;;7371588;19;20062;-68
2023/09/24 03:37:47;;;;;;;5.90;3.38;;;;;;;;;;7389970;19;20473;-68
2023/09/24 03:40:23;;;;;;;5.13;2.85;;;;;;;;;;7368553;19;20061;-68
2023/09/24 03:42:49;;;;;;;4.43;2.47;;;;;;;;;;7366216;19;20509;-68
2023/09/24 03:45:16;;;;;;;6.10;2.85;;;;;;;;;;7368213;19;20010;-67
2023/09/24 03:47:42;;;;;;;6.15;2.75;;;;;;;;;;7367770;19;20379;-68
2023/09/24 03:50:10;;;;;;;6.68;2.78;;;;;;;;;;7389898;19;20006;-67
2023/09/24 03:52:37;;;;;;;6.88;2.83;;;;;;;;;;7366150;19;20043;-69
2023/09/24 03:55:04;;;;;;;7.25;2.55;;;;;;;;;;7368058;19;20345;-68
2023/09/24 03:57:30;;;;;;;6.65;2.53;;;;;;;;;;7368337;19;20038;-69
2023/09/24 03:59:56;;;;;;;5.03;2.75;;;;;;;;;;7368799;19;20444;-68
2023/09/24 04:02:22;;;;;;;5.28;2.92;;;;;;;;;;7366658;19;20018;-68
2023/09/24 04:04:48;;;;;;;5.43;2.78;;;;;;;;;;7389029;19;20472;-68
2023/09/24 04:07:17;;;;;;;5.90;2.90;;;;;;;;;;7367323;19;20032;-69
2023/09/24 04:09:43;;;;;;;6.30;2.65;;;;;;;;;;7367581;19;20007;-68
2023/09/24 04:12:09;;;;;;;5.95;2.60;;;;;;;;;;7366630;19;20011;-68
2023/09/24 04:14:35;;;;;;;4.57;2.60;;;;;;;;;;7366495;19;20010;-69
2023/09/24 04:17:02;;;;;;;4.93;2.63;;;;;;;;;;7389447;19;19998;-68
2023/09/24 04:19:28;;;;;;;6.70;2.72;;;;;;;;;;7366896;19;20010;-68
2023/09/24 04:21:54;;;;;;;4.88;2.85;;;;;;;;;;7366576;19;20437;-69
2023/09/24 04:24:20;;;;;;;7.82;3.22;;;;;;;;;;7365665;19;20019;-68
2023/09/24 04:26:46;;;;;;;6.70;3.03;;;;;;;;;;7366746;19;20040;-69
2023/09/24 04:29:12;;;;;;;7.18;2.92;;;;;;;;;;7387030;19;20551;-68
2023/09/24 04:31:37;;;;;;;7.82;3.38;;;;;;;;;;7365996;19;20074;-68
2023/09/24 04:34:03;;;;;;;6.85;2.90;;;;;;;;;;7364654;19;20485;-68
2023/09/24 04:36:29;;;;;;;7.47;2.70;;;;;;;;;;7366942;19;20010;-69
2023/09/24 04:38:54;;;;;;;5.75;3.05;;;;;;;;;;7367100;19;20027;-68
2023/09/24 04:41:20;;;;;;;6.50;2.85;;;;;;;;;;7366393;19;20709;-69
2023/09/24 04:43:46;;;;;;;4.57;2.30;;;;;;;;;;7386282;19;19991;-69
2023/09/24 04:46:11;;;;;;;6.32;2.70;;;;;;;;;;7365460;19;20002;-67
2023/09/24 04:48:37;;;;;;;5.63;2.70;;;;;;;;;;7365879;19;20010;-70
2023/09/24 04:51:02;;;;;;;4.40;2.20;;;;;;;;;;7366522;19;20079;-68
2023/09/24 04:53:28;;;;;;;4.18;2.58;;;;;;;;;;7363296;19;20412;-69
2023/09/24 04:55:54;;;;;;;6.65;3.00;;;;;;;;;;7387527;19;20322;-69
2023/09/24 04:58:20;;;;;;;6.10;2.58;;;;;;;;;;7365493;19;20010;-69
2023/09/24 05:00:45;;;;;;;7.72;3.10;;;;;;;;;;7366217;19;20526;-68
2023/09/24 05:03:10;;;;;;;3.97;2.45;;;;;;;;;;7364460;19;20398;-69
2023/09/24 05:05:43;;;;;;;6.55;2.67;;;;;;;;;;7366924;19;20008;-69
2023/09/24 05:08:09;;;;;;;5.00;2.70;;;;;;;;;;7387415;19;19999;-68
2023/09/24 05:10:36;;;;;;;5.85;2.65;;;;;;;;;;7366518;19;20002;-68
2023/09/24 05:13:05;;;;;;;4.13;2.17;;;;;;;;;;7369243;19;20017;-68
2023/09/24 05:15:30;;;;;;;4.85;2.47;;;;;;;;;;7384910;19;20334;-69
2023/09/24 05:17:56;;;;;;;5.18;2.60;;;;;;;;;;7383087;19;20023;-68
2023/09/24 05:20:22;;;;;;;6.97;2.63;;;;;;;;;;7371601;19;20034;-69
2023/09/24 05:22:47;;;;;;;4.35;2.70;;;;;;;;;;7391346;19;19999;-68
2023/09/24 05:25:13;;;;;;;6.80;2.60;;;;;;;;;;7373344;19;20010;-69
2023/09/24 05:27:38;;;;;;;9.95;2.70;;;;;;;;;;7372801;19;20070;-68
2023/09/24 05:30:05;;;;;;;6.90;2.58;;;;;;;;;;7376467;19;20176;-69
2023/09/24 05:32:33;;;;;;;5.55;2.65;;;;;;;;;;7372644;19;20023;-69
2023/09/24 05:34:58;;;;;;;5.32;2.40;;;;;;;;;;7396442;19;20010;-69
2023/09/24 05:37:24;;;;;;;4.07;2.38;;;;;;;;;;7372694;19;20006;-69
2023/09/24 05:39:49;;;;;;;6.40;2.97;;;;;;;;;;7372916;19;20021;-68
2023/09/24 05:42:16;;;;;;;6.68;2.65;;;;;;;;;;7370481;19;20544;-67
2023/09/24 05:44:41;;;;;;;7.53;3.25;;;;;;;;;;7372210;19;20006;-69
2023/09/24 05:47:07;;;;;;;7.10;3.10;;;;;;;;;;7394179;19;20054;-72
2023/09/24 05:49:32;;;;;;;8.90;3.35;;;;;;;;;;7370848;19;20026;-67
2023/09/24 05:51:58;;;;;;;7.88;3.10;;;;;;;;;;7370896;19;20006;-68
2023/09/24 05:54:24;;;;;;;6.13;2.83;;;;;;;;;;7371890;19;20007;-68
2023/09/24 05:56:49;;;;;;;6.03;3.13;;;;;;;;;;7371537;19;20551;-69
2023/09/24 05:59:14;;;;;;;4.75;2.60;;;;;;;;;;7393395;19;20002;-68
2023/09/24 06:01:40;;;;;;;7.45;2.88;;;;;;;;;;7371059;19;20010;-69
2023/09/24 06:04:05;;;;;;;6.57;3.15;;;;;;;;;;7371133;19;20025;-69
2023/09/24 06:06:30;;;;;;;6.90;3.80;;;;;;;;;;7371934;19;20014;-69
2023/09/24 06:08:58;;;;;;;8.98;3.67;;;;;;;;;;7370000;19;20736;-68
2023/09/24 06:11:23;;;;;;;7.68;3.50;;;;;;;;;;7370940;19;20013;-69
2023/09/24 06:13:48;;;;;;;8.75;3.50;;;;;;;;;;7389507;19;19995;-68
2023/09/24 06:16:14;;;;;;;7.05;2.97;;;;;;;;;;7364307;19;20034;-68
2023/09/24 06:18:40;;;;;;;8.70;3.30;;;;;;;;;;7368788;19;20013;-68
2023/09/24 06:21:05;;;;;;;6.90;3.08;;;;;;;;;;7371411;19;20030;-69
2023/09/24 06:23:31;;;;;;;9.80;3.90;;;;;;;;;;7367717;19;20003;-69
2023/09/24 06:25:59;;;;;;;9.63;3.53;;;;;;;;;;7395316;19;20006;-68
2023/09/24 06:28:26;;;;;;;7.13;3.40;;;;;;;;;;7370129;19;20365;-72
2023/09/24 06:31:01;;;;;;;15.52;4.05;;;;;;;;;;7370819;19;20365;-68
2023/09/24 06:33:27;;;;;;;8.38;3.80;;;;;;;;;;7367931;19;20023;-68
2023/09/24 06:35:53;;;;;;;10.18;3.75;;;;;;;;;;7371141;19;20035;-69
2023/09/24 06:38:18;;;;;;;6.88;3.85;;;;;;;;;;7371141;19;20007;-69
2023/09/24 06:40:44;;;;;;;5.32;3.13;;;;;;;;;;7396564;19;19994;-68
2023/09/24 06:43:09;;;;;;;6.05;3.30;;;;;;;;;;7373129;19;20014;-68
2023/09/24 06:45:35;;;;;;;6.03;2.90;;;;;;;;;;7376862;19;20006;-69
2023/09/24 06:48:01;;;;;;;5.57;2.85;;;;;;;;;;7370827;19;20014;-69
2023/09/24 06:50:27;;;;;;;5.53;2.97;;;;;;;;;;7369649;19;20006;-69
2023/09/24 06:52:52;;;;;;;7.25;3.15;;;;;;;;;;7389347;19;20007;-69
2023/09/24 06:55:17;;;;;;;4.68;2.90;;;;;;;;;;7368874;19;20035;-68
2023/09/24 06:57:43;;;;;;;5.38;2.60;;;;;;;;;;7369784;19;20010;-68
2023/09/24 07:00:09;;;;;;;6.18;3.25;;;;;;;;;;7369505;19;20006;-69
2023/09/24 07:02:34;;;;;;;4.07;2.53;;;;;;;;;;7367728;19;20447;-68
2023/09/24 07:05:00;;;;;;;5.55;2.88;;;;;;;;;;7390988;19;20006;-69
2023/09/24 07:07:26;;;;;;;4.57;2.58;;;;;;;;;;7368810;19;20022;-69
2023/09/24 07:09:52;;;;;;;5.57;2.78;;;;;;;;;;7369030;19;20078;-69
2023/09/24 07:12:17;;;;;;;4.97;2.72;;;;;;;;;;7367426;19;20052;-69
2023/09/24 07:14:43;;;;;;;10.65;3.45;;;;;;;;;;7368940;19;20021;-69
2023/09/24 07:17:08;;;;;;;12.15;3.65;;;;;;;;;;7389525;19;20014;-68
2023/09/24 07:19:34;;;;;;;6.63;3.00;;;;;;;;;;7367932;19;20092;-69
2023/09/24 07:21:59;;;;;;;7.78;2.70;;;;;;;;;;7367799;19;20322;-69
2023/09/24 07:24:25;;;;;;;7.90;3.15;;;;;;;;;;7366697;19;20668;-69
2023/09/24 07:26:50;;;;;;;6.82;3.15;;;;;;;;;;7367413;19;20006;-69
2023/09/24 07:29:16;;;;;;;6.88;2.88;;;;;;;;;;7382900;19;20019;-70
2023/09/24 07:31:41;;;;;;;6.57;3.17;;;;;;;;;;7377209;19;20472;-68
2023/09/24 07:34:09;;;;;;;7.30;2.70;;;;;;;;;;7367537;19;20014;-69
2023/09/24 07:36:34;;;;;;;6.18;2.70;;;;;;;;;;7368446;19;20007;-68
2023/09/24 07:39:00;;;;;;;5.70;2.55;;;;;;;;;;7367030;19;20025;-69
2023/09/24 07:41:25;;;;;;;6.05;2.70;;;;;;;;;;7367366;19;20023;-69
2023/09/24 07:43:51;;;;;;;4.05;2.63;;;;;;;;;;7388607;19;20595;-69
2023/09/24 07:46:16;;;;;;;5.32;2.50;;;;;;;;;;7365208;19;20018;-69
2023/09/24 07:48:43;;;;;;;8.07;2.80;;;;;;;;;;7367852;19;20037;-68
2023/09/24 07:51:09;;;;;;;6.13;2.58;;;;;;;;;;7369924;19;20006;-68
2023/09/24 07:53:34;;;;;;;5.40;2.45;;;;;;;;;;7366407;19;20003;-69
2023/09/24 07:56:09;;;;;;;7.30;2.70;;;;;;;;;;7390124;19;20036;-68
2023/09/24 07:58:36;;;;;;;5.25;2.55;;;;;;;;;;7367819;19;20014;-69
2023/09/24 08:01:05;;;;;;;6.03;2.47;;;;;;;;;;7367125;19;20010;-68
2023/09/24 08:03:31;;;;;;;4.80;2.60;;;;;;;;;;7366316;19;20025;-69
2023/09/24 08:05:57;;;;;;;5.45;2.28;;;;;;;;;;7367684;19;20020;-69
2023/09/24 08:08:23;;;;;;;4.85;2.20;;;;;;;;;;7365868;19;20023;-69
2023/09/24 08:10:50;;;;;;;6.15;2.50;;;;;;;;;;7389184;19;19990;-68
2023/09/24 08:13:16;;;;;;;4.38;2.47;;;;;;;;;;7364851;19;20026;-68
2023/09/24 08:15:41;;;;;;;5.82;2.30;;;;;;;;;;7367502;19;20013;-69
2023/09/24 08:18:09;;;;;;;5.65;2.63;;;;;;;;;;7367804;19;20010;-68
2023/09/24 08:20:36;;;;;;;5.93;2.42;;;;;;;;;;7367252;19;20002;-68
2023/09/24 08:23:01;;;;;;;3.95;2.35;;;;;;;;;;7386866;19;20006;-68
2023/09/24 08:25:27;;;;;;;7.10;2.58;;;;;;;;;;7366692;19;20089;-69
2023/09/24 08:27:52;;;;;;;5.07;2.42;;;;;;;;;;7366253;19;20373;-68
2023/09/24 08:30:19;;;;;;;6.45;2.38;;;;;;;;;;7367753;19;20011;-68
2023/09/24 08:32:44;;;;;;;4.57;2.70;;;;;;;;;;7366271;19;21809;-68
2023/09/24 08:35:09;;;;;;;5.80;2.55;;;;;;;;;;7389490;19;20036;-68
2023/09/24 08:37:35;;;;;;;4.13;2.33;;;;;;;;;;7367032;19;20006;-69
2023/09/24 08:40:00;;;;;;;6.05;2.50;;;;;;;;;;7366730;19;20027;-69
2023/09/24 08:42:26;;;;;;;5.28;2.22;;;;;;;;;;7365505;19;20013;-69
2023/09/24 08:45:10;;;;;;;5.60;2.38;;;;;;;;;;7367443;19;20007;-69
2023/09/24 08:47:38;;;;;;;5.15;2.10;;;;;;;;;;7367326;19;20004;-69
2023/09/24 08:50:03;;;;;;;4.03;2.20;;;;;;;;;;7388433;19;20002;-68
2023/09/24 08:52:33;;;;;;;8.05;2.40;;;;;;;;;;7364279;19;20011;-69
2023/09/24 08:54:59;;;;;;;6.47;2.50;;;;;;;;;;7365460;19;20002;-68
2023/09/24 08:57:24;;;;;;;6.07;2.40;;;;;;;;;;7369510;19;20243;-69
2023/09/24 08:59:50;;;;;;;6.03;2.30;;;;;;;;;;7373653;19;20026;-69
2023/09/24 09:02:16;;;;;;;4.57;1.88;;;;;;;;;;7390011;19;20074;-70
2023/09/24 09:04:48;;;;;;;4.38;2.13;;;;;;;;;;7382719;19;20010;-69
2023/09/24 09:07:14;;;;;;;4.22;2.25;;;;;;;;;;7372829;19;20014;-69
2023/09/24 09:09:40;;;;;;;7.95;2.42;;;;;;;;;;7371976;19;20021;-69
2023/09/24 09:12:06;;;;;;;6.60;2.30;;;;;;;;;;7372127;19;20017;-69
2023/09/24 09:14:35;;;;;;;7.93;2.55;;;;;;;;;;7373263;19;19998;-69
2023/09/24 09:17:02;;;;;;;8.05;2.30;;;;;;;;;;7394987;19;20024;-68
2023/09/24 09:19:28;;;;;;;7.85;2.85;;;;;;;;;;7372275;19;20023;-68
2023/09/24 09:21:53;;;;;;;10.98;2.63;;;;;;;;;;7371220;19;20341;-68
2023/09/24 09:24:23;;;;;;;6.13;2.30;;;;;;;;;;7372874;19;20090;-68
2023/09/24 09:26:56;;;;;;;5.47;2.40;;;;;;;;;;7373138;19;20015;-69
2023/09/24 09:29:23;;;;;;;5.90;2.35;;;;;;;;;;7370407;19;20002;-69
2023/09/24 09:31:49;;;;;;;6.82;2.28;;;;;;;;;;7397094;19;20022;-68
2023/09/24 09:34:14;;;;;;;6.45;2.20;;;;;;;;;;7374741;19;20010;-68
2023/09/24 09:36:39;;;;;;;11.45;2.50;;;;;;;;;;7376556;19;20085;-68
2023/09/24 09:39:06;;;;;;;7.90;2.25;;;;;;;;;;7373259;19;20041;-69
2023/09/24 09:41:33;;;;;;;5.63;2.35;;;;;;;;;;7372469;19;20027;-69
2023/09/24 09:44:04;;;;;;;5.45;2.35;;;;;;;;;;7394164;19;20015;-68
2023/09/24 09:46:33;;;;;;;7.18;2.30;;;;;;;;;;7372023;19;20006;-69
2023/09/24 09:49:06;;;;;;;4.93;2.13;;;;;;;;;;7370709;19;20075;-69
2023/09/24 09:51:41;;;;;;;4.95;2.20;;;;;;;;;;7371998;19;20041;-70
2023/09/24 09:54:07;;;;;;;4.45;1.98;;;;;;;;;;7370504;19;20014;-68
2023/09/24 09:56:35;;;;;;;4.85;2.13;;;;;;;;;;7372114;19;20025;-70
2023/09/24 09:59:01;;;;;;;3.67;2.00;;;;;;;;;;7393218;19;20006;-69
2023/09/24 10:01:26;;;;;;;4.57;2.13;;;;;;;;;;7371559;19;20033;-70
2023/09/24 10:03:53;;;;;;;3.92;1.98;;;;;;;;;;7371474;19;20016;-68
2023/09/24 10:06:19;;;;;;;5.05;2.13;;;;;;;;;;7372701;19;20010;-69
2023/09/24 10:08:47;;;;;;;3.40;1.98;;;;;;;;;;7369138;19;20034;-69
2023/09/24 10:11:33;;;;;;;4.47;2.10;;;;;;;;;;7393226;19;20253;-69
2023/09/24 10:14:05;;;;;;;5.28;2.00;;;;;;;;;;7371448;19;20006;-69
2023/09/24 10:16:37;;;;;;;4.43;1.67;;;;;;;;;;7371173;19;20031;-68
2023/09/24 10:19:05;;;;;;;4.63;1.85;;;;;;;;;;7371918;19;20754;-69
2023/09/24 10:21:36;;;;;;;5.45;1.80;;;;;;;;;;7371700;19;20044;-69
2023/09/24 10:24:13;;;;;;;3.95;1.77;;;;;;;;;;7369355;19;20006;-68
2023/09/24 10:26:51;;;;;;;5.38;1.80;;;;;;;;;;7370803;19;20014;-69
2023/09/24 10:29:18;;;;;;;3.60;1.90;;;;;;;;;;7382853;19;20011;-70
2023/09/24 10:32:09;;;;;;;2.45;1.63;;;;;;;;;;7391266;19;20429;-69
2023/09/24 10:34:55;;;;;;;3.70;1.70;;;;;;;;;;7369793;19;20036;-69
2023/09/24 10:37:24;;;;;;;3.83;1.83;;;;;;;;;;7369651;19;20081;-69
2023/09/24 10:40:19;;;;;;;3.67;1.95;;;;;;;;;;7373601;19;19998;-69
2023/09/24 10:42:45;;;;;;;5.32;1.70;;;;;;;;;;7371381;19;20490;-67
2023/09/24 10:45:10;;;;;;;4.60;2.03;;;;;;;;;;7372099;19;20010;-69
2023/09/24 10:47:45;;;;;;;5.38;2.40;;;;;;;;;;7370730;19;20475;-70
2023/09/24 10:50:19;;;;;;;2.97;1.90;;;;;;;;;;7392240;19;19999;-68
2023/09/24 10:52:55;;;;;;;4.70;1.75;;;;;;;;;;7368043;19;20392;-69
2023/09/24 10:55:27;;;;;;;6.55;1.70;;;;;;;;;;7367983;19;20006;-69
2023/09/24 10:57:53;;;;;;;3.03;1.58;;;;;;;;;;7369600;19;20073;-69
2023/09/24 11:00:22;;;;;;;3.50;1.70;;;;;;;;;;7369984;19;20017;-69
2023/09/24 11:02:59;;;;;;;5.17;1.83;;;;;;;;;;7368823;19;20369;-69
2023/09/24 11:05:26;;;;;;;5.53;1.75;;;;;;;;;;7369125;19;19999;-70
2023/09/24 11:07:53;;;;;;;3.05;1.60;;;;;;;;;;7390112;19;19999;-68
2023/09/24 11:10:23;;;;;;;4.50;1.70;;;;;;;;;;7369220;19;20010;-69
2023/09/24 11:12:52;;;;;;;3.97;1.88;;;;;;;;;;7368154;19;20006;-69
2023/09/24 11:15:19;;;;;;;2.72;1.50;;;;;;;;;;7369632;19;20073;-69
2023/09/24 11:17:46;;;;;;;6.75;1.92;;;;;;;;;;7369441;19;20015;-69
2023/09/24 11:20:12;;;;;;;3.80;1.40;;;;;;;;;;7390602;19;20023;-68
2023/09/24 11:22:39;;;;;;;4.30;1.73;;;;;;;;;;7366979;19;20072;-69
2023/09/24 11:25:09;;;;;;;4.43;1.50;;;;;;;;;;7368797;19;20334;-69
2023/09/24 11:27:36;;;;;;;3.45;1.60;;;;;;;;;;7368544;19;19999;-69
2023/09/24 11:30:03;;;;;;;3.97;1.60;;;;;;;;;;7369098;19;20019;-69
2023/09/24 11:32:29;;;;;;;5.18;1.88;;;;;;;;;;7367307;19;20006;-69
2023/09/24 11:35:25;;;;;;;3.13;1.50;;;;;;;;;;7390371;19;19998;-68
2023/09/24 11:38:01;;;;;;;3.10;1.30;;;;;;;;;;7368037;19;20005;-68
2023/09/24 11:40:35;;;;;;;3.45;1.50;;;;;;;;;;7367808;19;20003;-68
2023/09/24 11:43:01;;;;;;;2.80;1.42;;;;;;;;;;7366279;19;20070;-69
2023/09/24 11:45:42;;;;;;;2.92;1.63;;;;;;;;;;7367547;19;20013;-68
2023/09/24 11:48:10;;;;;;;4.15;1.63;;;;;;;;;;7367506;19;20408;-68
2023/09/24 11:50:37;;;;;;;3.20;1.60;;;;;;;;;;7369213;19;20018;-68
2023/09/24 11:53:03;;;;;;;3.85;1.73;;;;;;;;;;7388311;19;20002;-69
2023/09/24 11:55:29;;;;;;;4.93;1.63;;;;;;;;;;7367533;19;20007;-69
2023/09/24 11:57:54;;;;;;;5.30;1.88;;;;;;;;;;7367958;19;20003;-70
2023/09/24 12:00:19;;;;;;;4.03;2.35;;;;;;;;;;7367537;19;20049;-69
2023/09/24 12:02:45;;;;;;;1.98;1.50;;;;;;;;;;7366577;19;20010;-68
2023/09/24 12:05:10;;;;;;;5.35;2.08;;;;;;;;;;7388801;19;20486;-70
2023/09/24 12:07:35;;;;;;;3.90;1.52;;;;;;;;;;7367583;19;20110;-69
2023/09/24 12:10:04;;;;;;;3.85;1.50;;;;;;;;;;7368868;19;20006;-69
2023/09/24 12:12:30;;;;;;;3.28;1.42;;;;;;;;;;7366840;19;20814;-69
2023/09/24 12:14:55;;;;;;;2.95;1.50;;;;;;;;;;7367089;19;20332;-68
2023/09/24 12:17:20;;;;;;;3.83;1.42;;;;;;;;;;7368061;19;19995;-69
2023/09/24 12:19:47;;;;;;;3.55;1.40;;;;;;;;;;7388346;19;19987;-68
2023/09/24 12:22:12;;;;;;;2.70;1.23;;;;;;;;;;7365812;19;20007;-69
2023/09/24 12:24:37;;;;;;;5.47;2.30;;;;;;;;;;7365858;19;20568;-69
2023/09/24 12:27:03;;;;;;;3.58;2.10;;;;;;;;;;7367348;19;20014;-69
2023/09/24 12:29:30;;;;;;;4.00;1.55;;;;;;;;;;7365487;19;19995;-70
2023/09/24 12:31:56;;;;;;;2.97;1.50;;;;;;;;;;7385720;19;20086;-69
2023/09/24 12:34:21;;;;;;;3.08;1.45;;;;;;;;;;7366249;19;20002;-69
2023/09/24 12:36:47;;;;;;;2.22;1.40;;;;;;;;;;7366657;19;20013;-69
2023/09/24 12:39:12;;;;;;;3.88;1.67;;;;;;;;;;7367206;19;20023;-69
2023/09/24 12:41:37;;;;;;;3.22;1.30;;;;;;;;;;7367319;19;20015;-68
2023/09/24 12:44:02;;;;;;;2.17;1.30;;;;;;;;;;7389742;19;20448;-68
2023/09/24 12:46:28;;;;;;;3.53;1.50;;;;;;;;;;7367602;19;20002;-69
2023/09/24 12:48:53;;;;;;;3.67;1.50;;;;;;;;;;7366087;19;20027;-69
2023/09/24 12:51:18;;;;;;;4.45;1.77;;;;;;;;;;7365879;19;20111;-69
2023/09/24 12:53:44;;;;;;;3.70;1.80;;;;;;;;;;7364030;19;20017;-69
2023/09/24 12:56:09;;;;;;;4.00;1.70;;;;;;;;;;7389552;19;19998;-69
2023/09/24 12:58:34;;;;;;;4.30;1.60;;;;;;;;;;7366891;19;20500;-69
2023/09/24 13:01:00;;;;;;;3.80;1.45;;;;;;;;;;7366285;19;20413;-69
2023/09/24 13:03:25;;;;;;;2.58;1.38;;;;;;;;;;7364770;19;20010;-69
2023/09/24 13:05:50;;;;;;;3.17;1.48;;;;;;;;;;7367192;19;20022;-68
2023/09/24 13:08:16;;;;;;;3.67;1.10;;;;;;;;;;7386373;19;20813;-72
2023/09/24 13:10:41;;;;;;;2.42;1.50;;;;;;;;;;7373428;19;20011;-68
2023/09/24 13:13:06;;;;;;;4.03;1.45;;;;;;;;;;7364560;19;20361;-68
2023/09/24 13:15:32;;;;;;;3.45;1.40;;;;;;;;;;7365778;19;20010;-69
2023/09/24 13:17:57;;;;;;;4.38;1.40;;;;;;;;;;7366654;19;20476;-68
2023/09/24 13:20:23;;;;;;;3.10;1.50;;;;;;;;;;7365976;19;20075;-68
2023/09/24 13:22:48;;;;;;;4.38;1.70;;;;;;;;;;7386409;19;20003;-68
2023/09/24 13:25:13;;;;;;;2.33;1.35;;;;;;;;;;7365775;19;20010;-68
2023/09/24 13:27:39;;;;;;;6.35;1.85;;;;;;;;;;7365115;19;20018;-68
2023/09/24 13:30:08;;;;;;;2.40;1.40;;;;;;;;;;7364886;19;20013;-69
2023/09/24 13:32:35;;;;;;;8.65;1.42;;;;;;;;;;7363446;19;20039;-69
2023/09/24 13:35:03;;;;;;;2.88;1.20;;;;;;;;;;7387195;19;20003;-68
2023/09/24 13:37:32;;;;;;;2.85;1.40;;;;;;;;;;7366583;19;20026;-69
2023/09/24 13:39:57;;;;;;;2.45;1.70;;;;;;;;;;7365814;19;20007;-69
2023/09/24 13:42:22;;;;;;;3.40;1.60;;;;;;;;;;7362847;19;20086;-68
2023/09/24 13:44:48;;;;;;;2.15;1.40;;;;;;;;;;7370924;19;20477;-69
2023/09/24 13:47:15;;;;;;;4.03;1.75;;;;;;;;;;7394457;19;20007;-68
2023/09/24 13:49:40;;;;;;;3.30;1.70;;;;;;;;;;7369567;19;20480;-69
2023/09/24 13:52:06;;;;;;;2.55;1.50;;;;;;;;;;7369928;19;20010;-69
2023/09/24 13:54:32;;;;;;;2.60;1.40;;;;;;;;;;7372439;19;20014;-69
2023/09/24 13:56:57;;;;;;;3.30;1.63;;;;;;;;;;7365394;19;20006;-69
2023/09/24 13:59:23;;;;;;;2.92;1.88;;;;;;;;;;7372462;19;20053;-68
2023/09/24 14:01:48;;;;;;;5.22;2.25;;;;;;;;;;7393974;19;20054;-68
2023/09/24 14:04:13;;;;;;;4.43;2.25;;;;;;;;;;7372849;19;20014;-68
2023/09/24 14:06:39;;;;;;;3.97;1.85;;;;;;;;;;7372210;19;20089;-69
2023/09/24 14:14:32;;;;;;;3.67;1.40;;;;;;;;;;7371947;19;20001;-68
2023/09/24 14:16:57;;;;;;;3.30;1.70;;;;;;;;;;7392694;19;20401;-69
2023/09/24 14:19:22;;;;;;;3.15;1.48;;;;;;;;;;7370660;19;20022;-69
2023/09/24 14:21:47;;;;;;;3.40;1.70;;;;;;;;;;7370865;19;20006;-68
2023/09/24 14:24:13;;;;;;;2.67;1.50;;;;;;;;;;7370062;19;20344;-68
2023/09/24 14:26:38;;;;;;;2.58;1.55;;;;;;;;;;7371649;19;20658;-69
2023/09/24 14:29:04;;;;;;;2.30;1.27;;;;;;;;;;7391749;19;20006;-69
2023/09/24 14:31:29;;;;;;;3.15;1.50;;;;;;;;;;7370219;19;20380;-69
2023/09/24 14:33:55;;;;;;;3.80;1.73;;;;;;;;;;7370107;19;20048;-69
2023/09/24 14:36:21;;;;;;;4.30;1.58;;;;;;;;;;7370167;19;20006;-68
2023/09/24 14:38:47;;;;;;;2.78;1.60;;;;;;;;;;7372465;19;20003;-69
2023/09/24 14:41:13;;;;;;;4.20;1.50;;;;;;;;;;7395395;19;20007;-69
2023/09/24 14:43:39;;;;;;;2.13;1.42;;;;;;;;;;7370192;19;20090;-69
2023/09/24 14:46:05;;;;;;;3.75;1.50;;;;;;;;;;7373403;19;20069;-69
2023/09/24 14:48:30;;;;;;;5.78;1.73;;;;;;;;;;7370988;19;20002;-69